Time;durP1;ratioP1;P1;durP2;ratioP2;P2;SDS_P1;SDS_P2;PMS_P1;PMS_P2;Temp;Humidity;BMP_temperature;BMP_pressure;BME280_temperature;BME280_humidity;BME280_pressure;Samples;Min_cycle;Max_cycle;Signal;HPM_P1;HPM_P2
2023/07/15 00:00:22;;;;;;;2.10;2.00;;;23.70;99.90;;;24.25;59.70;100206.69;5062004;28;20555;-74
2023/07/15 00:02:51;;;;;;;2.03;1.92;;;23.80;99.90;;;24.33;59.41;100223.22;5054468;28;20482;-74
2023/07/15 00:05:35;;;;;;;2.20;2.10;;;23.90;99.90;;;24.42;59.30;100221.72;5054658;28;20041;-74
2023/07/15 00:08:03;;;;;;;2.20;2.10;;;24.00;99.90;;;24.45;59.45;100235.03;5052211;28;20069;-74
2023/07/15 00:10:33;;;;;;;2.45;2.35;;;24.10;99.90;;;24.51;59.15;100240.84;5054842;28;20049;-73
2023/07/15 00:13:02;;;;;;;2.17;2.07;;;24.10;99.90;;;24.56;58.94;100245.94;5054570;28;20106;-73
2023/07/15 00:15:31;;;;;;;2.17;2.08;;;24.20;99.90;;;24.53;58.91;100246.13;5053674;28;20548;-75
2023/07/15 00:18:00;;;;;;;1.98;1.88;;;24.20;99.90;;;24.62;58.92;100231.97;5053817;28;20044;-73
2023/07/15 00:20:29;;;;;;;2.15;2.05;;;24.30;99.90;;;24.69;58.58;100223.28;5050226;28;20124;-73
2023/07/15 00:22:57;;;;;;;2.30;2.20;;;24.30;99.90;;;24.73;58.43;100226.66;5053996;28;20059;-74
2023/07/15 00:25:26;;;;;;;2.10;2.00;;;24.30;99.90;;;24.70;58.74;100229.56;5054230;28;20056;-73
2023/07/15 00:27:54;;;;;;;2.20;2.10;;;24.30;99.90;;;24.72;58.79;100227.63;5053756;28;20057;-73
2023/07/15 00:30:23;;;;;;;2.13;2.03;;;24.30;99.90;;;24.76;59.05;100248.94;5052861;28;20405;-73
2023/07/15 00:32:53;;;;;;;2.05;1.95;;;24.40;99.90;;;24.68;59.28;100264.00;5052851;28;20056;-74
2023/07/15 00:35:25;;;;;;;2.00;1.90;;;24.30;99.90;;;24.59;59.50;100265.50;5054120;28;20049;-74
2023/07/15 00:37:55;;;;;;;2.20;2.10;;;24.20;99.90;;;24.51;59.86;100243.53;5052759;28;20049;-74
2023/07/15 00:40:24;;;;;;;2.42;2.33;;;24.30;99.90;;;24.60;60.26;100269.09;5054213;28;20045;-74
2023/07/15 00:43:48;;;;;;;1.85;1.85;;;24.20;99.90;;;24.64;60.78;100276.00;5053877;28;20041;-75
2023/07/15 00:46:37;;;;;;;2.00;1.90;;;24.20;99.90;;;24.65;61.06;100278.59;5049116;28;20049;-74
2023/07/15 00:49:15;;;;;;;2.03;1.92;;;24.20;99.90;;;24.59;61.33;100275.44;5053780;28;20041;-73
2023/07/15 00:51:48;;;;;;;1.80;1.80;;;24.20;99.90;;;24.66;61.60;100272.19;5051366;28;20078;-73
2023/07/15 00:54:18;;;;;;;1.65;1.65;;;24.30;99.90;;;24.65;61.87;100261.47;5052438;28;20049;-74
2023/07/15 00:56:47;;;;;;;1.70;1.70;;;24.30;99.90;;;24.68;61.95;100270.25;5053592;28;20048;-73
2023/07/15 00:59:17;;;;;;;2.05;1.95;;;24.30;99.90;;;24.68;62.20;100262.13;5060341;28;20098;-74
2023/07/15 01:01:49;;;;;;;2.00;1.90;;;24.30;99.90;;;24.55;62.46;100252.28;5049647;28;20065;-74
2023/07/15 01:04:17;;;;;;;2.08;1.98;;;24.30;99.90;;;24.56;63.05;100260.31;5052277;28;20063;-74
2023/07/15 01:06:46;;;;;;;2.10;2.00;;;24.20;99.90;;;24.59;63.02;100254.69;5053515;28;20045;-74
2023/07/15 01:09:14;;;;;;;1.60;1.60;;;24.20;99.90;;;24.56;63.16;100259.44;5052117;28;20549;-74
2023/07/15 01:11:43;;;;;;;1.92;1.83;;;24.20;99.90;;;24.51;63.39;100259.78;5053290;28;20513;-74
2023/07/15 01:14:13;;;;;;;1.92;1.83;;;24.10;99.90;;;24.44;63.77;100263.91;5052072;28;20509;-74
2023/07/15 01:16:41;;;;;;;1.60;1.60;;;24.10;99.90;;;24.42;64.00;100257.72;5053307;28;20482;-74
2023/07/15 01:19:11;;;;;;;2.35;2.25;;;24.00;99.90;;;24.32;64.08;100261.19;5053008;28;20823;-74
2023/07/15 01:21:40;;;;;;;2.00;1.90;;;24.00;99.90;;;24.27;64.20;100252.53;5048013;28;20140;-73
2023/07/15 01:24:09;;;;;;;1.88;1.80;;;23.90;99.90;;;24.20;64.75;100254.81;5051796;28;20486;-74
2023/07/15 01:26:38;;;;;;;2.15;2.05;;;23.80;99.90;;;24.18;65.03;100264.84;5052863;28;20375;-74
2023/07/15 01:29:06;;;;;;;2.10;2.00;;;23.80;99.90;;;24.11;65.72;100260.84;5052352;28;20483;-73
2023/07/15 01:31:36;;;;;;;1.98;1.88;;;23.70;99.90;;;24.11;65.82;100267.13;5050445;28;20057;-74
2023/07/15 01:34:05;;;;;;;2.17;2.08;;;23.70;99.90;;;24.16;66.28;100248.75;5068274;28;20533;-74
2023/07/15 01:36:33;;;;;;;2.00;1.90;;;23.70;99.90;;;24.09;67.42;100252.88;5052705;28;20132;-74
2023/07/15 01:39:02;;;;;;;2.15;2.05;;;23.70;99.90;;;24.13;68.11;100257.09;5051723;28;20461;-74
2023/07/15 01:41:31;;;;;;;1.75;1.75;;;23.70;99.90;;;24.11;68.85;100253.63;5052923;28;20047;-74
2023/07/15 01:44:02;;;;;;;2.03;1.92;;;23.70;99.90;;;24.16;69.07;100256.00;5047930;28;20044;-74
2023/07/15 01:46:31;;;;;;;;;;;23.70;99.90;;;24.19;69.32;100255.78;5052101;28;20111;-74
2023/07/15 01:49:02;;;;;;;1.95;1.85;;;23.70;99.90;;;24.22;69.36;100254.69;5052552;28;19920;-74
2023/07/15 01:51:32;;;;;;;2.13;2.03;;;23.70;99.90;;;24.22;69.55;100260.97;5053182;28;20385;-74
2023/07/15 01:54:00;;;;;;;3.47;3.30;;;23.80;99.90;;;24.15;70.26;100251.56;5052680;28;20079;-74
2023/07/15 01:56:30;;;;;;;2.33;2.22;;;23.70;99.90;;;24.14;70.18;100268.75;5051582;28;20402;-74
2023/07/15 01:58:59;;;;;;;1.92;1.83;;;23.70;99.90;;;24.07;70.81;100257.50;5068198;28;20049;-74
2023/07/15 02:01:28;;;;;;;2.45;2.35;;;23.60;99.90;;;24.07;70.69;100260.22;5060797;28;20046;-74
2023/07/15 02:03:56;;;;;;;2.35;2.25;;;23.60;99.90;;;24.07;71.00;100260.22;5064535;28;20053;-73
2023/07/15 02:06:25;;;;;;;2.08;1.98;;;23.60;99.90;;;24.04;70.93;100259.56;5052633;28;20116;-73
2023/07/15 02:08:54;;;;;;;2.30;2.20;;;23.60;99.90;;;24.00;71.61;100250.75;5052330;28;20494;-73
2023/07/15 02:11:26;;;;;;;2.17;2.08;;;23.60;99.90;;;23.97;71.82;100259.09;5051443;28;20049;-74
2023/07/15 02:13:56;;;;;;;2.00;1.90;;;23.50;99.90;;;23.96;72.07;100260.03;5052345;28;20403;-73
2023/07/15 02:16:26;;;;;;;2.28;2.17;;;23.60;99.90;;;23.98;72.64;100268.06;5051330;28;20064;-73
2023/07/15 02:18:54;;;;;;;2.40;2.30;;;23.50;99.90;;;23.99;72.88;100262.53;5052593;28;20056;-74
2023/07/15 02:21:26;;;;;;;1.73;1.73;;;23.50;99.90;;;23.97;72.99;100261.78;5048941;28;20045;-73
2023/07/15 02:23:54;;;;;;;2.15;2.05;;;23.60;99.90;;;23.95;73.42;100257.44;5051259;28;20053;-73
2023/07/15 02:26:22;;;;;;;2.10;2.00;;;23.50;99.90;;;23.91;73.72;100256.81;5048950;28;20073;-73
2023/07/15 02:28:50;;;;;;;2.28;2.17;;;23.50;99.90;;;23.87;74.10;100255.28;5052010;28;20053;-73
2023/07/15 02:31:20;;;;;;;2.30;2.20;;;23.50;99.90;;;23.85;74.29;100261.75;5052365;28;20449;-74
2023/07/15 02:33:49;;;;;;;2.90;2.75;;;23.40;99.90;;;23.79;74.67;100259.50;5050262;28;20046;-74
2023/07/15 02:36:18;;;;;;;1.88;1.80;;;23.40;99.90;;;23.68;75.60;100262.03;5067789;28;20439;-74
2023/07/15 02:38:47;;;;;;;2.60;2.50;;;23.30;99.90;;;23.67;76.00;100257.63;5052265;28;20045;-74
2023/07/15 02:41:15;;;;;;;2.72;2.63;;;23.30;99.90;;;23.69;76.23;100263.78;5055809;28;20075;-74
2023/07/15 02:43:45;;;;;;;1.88;1.80;;;23.20;99.90;;;23.69;76.55;100261.94;5051898;28;20453;-73
2023/07/15 02:46:13;;;;;;;2.42;2.33;;;23.20;99.90;;;23.67;76.37;100252.22;5054855;28;20053;-74
2023/07/15 02:48:43;;;;;;;2.53;2.42;;;23.20;99.90;;;23.64;76.23;100261.38;5052579;28;20049;-73
2023/07/15 02:51:12;;;;;;;2.75;2.65;;;23.20;99.90;;;23.59;76.67;100260.84;5071579;28;20053;-74
2023/07/15 02:53:41;;;;;;;2.30;2.20;;;23.20;99.90;;;23.45;77.37;100260.91;5055701;28;20041;-73
2023/07/15 02:56:10;;;;;;;2.28;2.17;;;23.10;99.90;;;23.49;77.09;100253.44;5053694;28;20088;-75
2023/07/15 02:58:40;;;;;;;2.47;2.38;;;23.00;99.90;;;23.46;77.56;100254.53;5055938;28;20086;-73
2023/07/15 03:01:09;;;;;;;2.15;2.05;;;23.00;99.90;;;23.27;77.63;100211.66;5055596;28;20049;-73
2023/07/15 03:03:38;;;;;;;2.33;2.22;;;23.00;99.90;;;23.49;77.56;100251.63;5054602;28;20049;-73
2023/07/15 03:06:09;;;;;;;2.33;2.22;;;23.10;99.90;;;23.49;77.81;100248.06;5052195;28;20053;-73
2023/07/15 03:08:37;;;;;;;2.05;1.95;;;23.10;99.90;;;23.54;77.72;100251.34;5054548;28;20045;-74
2023/07/15 03:11:08;;;;;;;2.40;2.30;;;23.10;99.90;;;23.59;77.89;100244.66;5055336;28;20441;-74
2023/07/15 03:13:36;;;;;;;2.13;2.03;;;23.10;99.90;;;23.61;77.94;100253.50;5055346;28;20075;-74
2023/07/15 03:16:05;;;;;;;2.15;2.05;;;23.20;99.90;;;23.64;77.69;100245.19;5053933;28;20084;-73
2023/07/15 03:18:35;;;;;;;2.15;2.05;;;23.20;99.90;;;23.66;77.58;100254.06;5055313;28;20126;-74
2023/07/15 03:21:03;;;;;;;2.38;2.28;;;23.30;99.90;;;23.58;77.50;100263.63;5055323;28;20045;-74
2023/07/15 03:23:34;;;;;;;2.00;1.90;;;23.20;99.90;;;23.57;77.41;100254.69;5051332;28;20069;-73
2023/07/15 03:26:04;;;;;;;2.80;2.70;;;23.20;99.90;;;23.59;77.16;100250.03;5062777;28;20099;-73
2023/07/15 03:28:32;;;;;;;2.78;2.67;;;23.20;99.90;;;23.52;77.71;100259.50;5055344;28;20055;-73
2023/07/15 03:31:00;;;;;;;2.35;2.25;;;23.10;99.90;;;23.44;77.76;100250.22;5054992;28;20111;-73
2023/07/15 03:33:29;;;;;;;2.20;2.10;;;23.10;99.90;;;23.46;78.04;100249.13;5055512;28;20041;-73
2023/07/15 03:36:00;;;;;;;2.15;2.05;;;23.10;99.90;;;23.46;78.06;100250.97;5053840;28;20041;-73
2023/07/15 03:38:29;;;;;;;2.17;2.08;;;23.00;99.90;;;23.47;78.33;100260.78;5053678;28;20049;-73
2023/07/15 03:40:58;;;;;;;2.25;2.15;;;23.10;99.90;;;23.45;78.63;100265.44;5067139;28;20072;-73
2023/07/15 03:43:27;;;;;;;2.45;2.35;;;23.00;99.90;;;23.50;78.51;100257.91;5050883;28;20571;-73
2023/07/15 03:45:58;;;;;;;2.33;2.22;;;23.10;99.90;;;23.53;78.61;100261.25;5051062;28;20049;-73
2023/07/15 03:48:26;;;;;;;2.45;2.35;;;23.10;99.90;;;23.45;78.98;100258.19;5055031;28;20063;-73
2023/07/15 03:50:54;;;;;;;2.00;1.90;;;23.10;99.90;;;23.53;78.91;100265.78;5054902;28;20052;-73
2023/07/15 03:53:23;;;;;;;2.17;2.08;;;23.10;99.90;;;23.51;79.36;100268.59;5054633;28;20045;-73
2023/07/15 03:55:51;;;;;;;2.25;2.15;;;23.10;99.90;;;23.46;79.79;100269.88;5052364;28;20053;-72
2023/07/15 03:58:21;;;;;;;2.10;2.00;;;23.10;99.90;;;23.40;80.05;100268.47;5070159;28;20536;-73
2023/07/15 04:00:50;;;;;;;2.50;2.40;;;23.00;99.90;;;23.39;79.88;100264.00;5054409;28;20461;-73
2023/07/15 04:03:19;;;;;;;2.13;2.03;;;22.90;99.90;;;23.42;79.75;100280.03;5070078;28;20037;-73
2023/07/15 04:05:47;;;;;;;2.42;2.33;;;23.00;99.90;;;23.34;79.97;100285.06;5050999;28;20044;-72
2023/07/15 04:08:15;;;;;;;2.95;2.85;;;22.90;99.90;;;23.36;79.69;100284.94;5051110;28;20053;-74
2023/07/15 04:10:46;;;;;;;2.30;2.20;;;22.90;99.90;;;23.14;79.92;100258.47;5054309;28;20064;-73
2023/07/15 04:13:15;;;;;;;2.25;2.15;;;22.90;99.90;;;23.15;79.83;100277.25;5054283;28;20048;-73
2023/07/15 04:15:44;;;;;;;2.40;2.30;;;22.80;99.90;;;23.22;79.92;100297.50;5054384;28;20045;-73
2023/07/15 04:18:13;;;;;;;2.60;2.50;;;22.80;99.90;;;23.17;79.89;100301.47;5054327;28;20060;-74
2023/07/15 04:20:42;;;;;;;2.42;2.33;;;22.80;99.90;;;23.21;79.88;100302.97;5054331;28;20052;-74
2023/07/15 04:23:10;;;;;;;2.35;2.25;;;22.80;99.90;;;23.16;79.35;100300.59;5054091;28;20040;-75
2023/07/15 04:25:40;;;;;;;2.40;2.30;;;22.70;99.90;;;23.14;79.12;100297.13;5054028;28;20555;-73
2023/07/15 04:28:08;;;;;;;2.25;2.15;;;22.70;99.90;;;23.15;78.66;100298.00;5050241;28;20053;-74
2023/07/15 04:30:37;;;;;;;2.58;2.47;;;22.70;99.90;;;23.16;78.43;100299.72;5053884;28;20041;-74
2023/07/15 04:33:07;;;;;;;2.58;2.47;;;22.70;99.90;;;23.14;77.93;100297.13;5053760;28;20127;-74
2023/07/15 04:35:35;;;;;;;2.30;2.20;;;22.70;99.90;;;23.13;77.24;100299.94;5052888;28;20095;-73
2023/07/15 04:38:04;;;;;;;2.42;2.33;;;22.70;99.90;;;23.04;76.78;100304.06;5053713;28;20052;-73
2023/07/15 04:40:33;;;;;;;2.17;2.08;;;22.60;99.90;;;23.01;76.22;100306.13;5054023;28;20083;-73
2023/07/15 04:43:01;;;;;;;2.47;2.38;;;22.60;99.90;;;23.00;76.39;100290.88;5053692;28;20045;-73
2023/07/15 04:45:31;;;;;;;3.40;3.20;;;22.60;99.90;;;23.04;76.46;100295.09;5053634;28;20040;-74
2023/07/15 04:48:00;;;;;;;2.55;2.45;;;22.60;99.90;;;23.08;76.80;100296.66;5053875;28;20455;-73
2023/07/15 04:50:30;;;;;;;1.95;1.85;;;22.70;99.90;;;23.08;77.07;100292.13;5049616;28;20083;-73
2023/07/15 04:52:58;;;;;;;2.20;2.10;;;22.70;99.90;;;23.06;77.47;100296.75;5053444;28;20041;-73
2023/07/15 04:55:27;;;;;;;2.17;2.08;;;22.60;99.90;;;23.01;77.73;100295.31;5053619;28;20311;-73
2023/07/15 04:57:55;;;;;;;2.63;2.53;;;22.60;99.90;;;22.97;77.72;100301.88;5053326;28;20045;-74
2023/07/15 05:00:27;;;;;;;2.45;2.35;;;22.50;99.90;;;22.85;77.03;100290.03;5053612;28;20048;-73
2023/07/15 05:02:55;;;;;;;2.30;2.20;;;22.50;99.90;;;22.84;76.53;100303.63;5052964;28;20077;-74
2023/07/15 05:05:23;;;;;;;2.60;2.50;;;22.40;99.90;;;22.69;76.13;100309.97;5053475;28;20037;-74
2023/07/15 05:07:54;;;;;;;2.67;2.58;;;22.30;99.90;;;22.66;75.59;100307.47;5053191;28;20063;-74
2023/07/15 05:10:26;;;;;;;2.10;2.00;;;22.20;99.90;;;22.38;75.22;100284.03;5048670;28;20053;-74
2023/07/15 05:12:55;;;;;;;2.17;2.08;;;22.10;99.90;;;22.61;75.41;100310.47;5053396;28;20051;-74
2023/07/15 05:15:23;;;;;;;2.45;2.35;;;22.10;99.90;;;22.58;75.23;100313.38;5053369;28;20112;-74
2023/07/15 05:17:52;;;;;;;2.50;2.40;;;22.10;99.90;;;22.54;75.26;100321.69;5051645;28;20091;-74
2023/07/15 05:20:20;;;;;;;2.35;2.25;;;22.10;99.90;;;22.59;75.27;100314.25;5053699;28;20099;-73
2023/07/15 05:22:49;;;;;;;2.45;2.35;;;22.10;99.90;;;22.65;75.49;100309.31;5052920;28;20128;-74
2023/07/15 05:25:20;;;;;;;2.50;2.40;;;22.20;99.90;;;22.65;75.54;100306.59;5052903;28;20056;-75
2023/07/15 05:27:48;;;;;;;2.40;2.30;;;22.20;99.90;;;22.70;75.43;100306.34;5053172;28;20088;-73
2023/07/15 05:30:17;;;;;;;2.33;2.22;;;22.30;99.90;;;22.63;75.24;100276.19;5052796;28;20041;-74
2023/07/15 05:32:45;;;;;;;2.50;2.40;;;22.30;99.90;;;22.83;75.05;100304.59;5049217;28;20048;-74
2023/07/15 05:35:14;;;;;;;2.20;2.10;;;22.40;99.90;;;22.81;74.40;100314.59;5053372;28;20048;-73
2023/07/15 05:37:43;;;;;;;2.15;2.05;;;22.40;99.90;;;22.71;73.84;100310.75;5052925;28;20445;-75
2023/07/15 05:40:13;;;;;;;2.70;2.60;;;22.30;99.90;;;22.65;73.79;100309.31;5052781;28;20076;-73
2023/07/15 05:42:44;;;;;;;2.47;2.38;;;22.20;99.90;;;22.62;73.07;100304.13;5053146;28;20048;-74
2023/07/15 05:45:13;;;;;;;2.53;2.42;;;22.20;99.90;;;22.43;72.81;100298.97;5052910;28;20049;-74
2023/07/15 05:47:42;;;;;;;2.38;2.28;;;22.20;99.90;;;22.66;73.13;100316.44;5052433;28;20490;-74
2023/07/15 05:50:10;;;;;;;6.78;2.75;;;22.20;99.90;;;22.72;73.14;100315.19;5052495;28;20052;-73
2023/07/15 05:52:39;;;;;;;2.58;2.47;;;22.20;99.90;;;22.70;72.87;100322.50;5052470;28;20118;-74
2023/07/15 05:55:08;;;;;;;2.33;2.22;;;22.30;99.90;;;22.68;72.84;100327.13;5052758;28;20041;-74
2023/07/15 05:57:36;;;;;;;2.10;2.00;;;22.20;99.90;;;22.64;72.91;100318.38;5052514;28;20037;-74
2023/07/15 06:00:09;;;;;;;2.30;2.20;;;22.30;99.90;;;22.66;73.02;100327.25;5052486;28;20441;-74
2023/07/15 06:02:39;;;;;;;2.50;2.40;;;22.20;99.90;;;22.71;73.07;100335.00;5052617;28;20053;-74
2023/07/15 06:05:09;;;;;;;2.40;2.30;;;22.30;99.90;;;22.75;73.47;100333.88;5052359;28;20553;-74
2023/07/15 06:07:38;;;;;;;2.30;2.20;;;22.30;99.90;;;22.80;73.32;100321.81;5052660;28;20072;-74
2023/07/15 06:10:07;;;;;;;2.65;2.55;;;22.30;99.90;;;22.22;73.46;100216.75;5047412;28;20098;-74
2023/07/15 06:12:36;;;;;;;2.17;2.08;;;22.40;99.90;;;22.88;73.74;100321.34;5048854;28;20041;-74
2023/07/15 06:15:07;;;;;;;2.63;2.53;;;22.50;99.90;;;22.91;73.71;100329.25;5055702;28;20124;-75
2023/07/15 06:17:35;;;;;;;2.22;2.13;;;22.50;99.90;;;23.01;73.50;100322.31;5053680;28;20045;-75
2023/07/15 06:20:05;;;;;;;2.20;2.10;;;22.50;99.90;;;23.01;73.40;100325.00;5071965;28;20037;-74
2023/07/15 06:22:33;;;;;;;2.15;2.05;;;22.60;99.90;;;23.01;73.64;100322.31;5056526;28;20124;-73
2023/07/15 06:25:02;;;;;;;2.38;2.28;;;22.60;99.90;;;23.06;73.05;100325.56;5054741;28;20052;-74
2023/07/15 06:27:30;;;;;;;2.20;2.10;;;22.70;99.90;;;23.01;71.16;100331.28;5056092;28;20144;-74
2023/07/15 06:29:58;;;;;;;2.55;2.45;;;22.60;99.90;;;23.00;71.34;100324.13;5056205;28;20452;-74
2023/07/15 06:32:28;;;;;;;3.38;2.67;;;22.60;99.90;;;23.09;71.06;100330.78;5052193;28;20056;-74
2023/07/15 06:34:57;;;;;;;2.40;2.30;;;22.70;99.90;;;22.96;69.55;100321.72;5052825;28;20060;-75
2023/07/15 06:37:25;;;;;;;2.30;2.20;;;22.60;99.90;;;22.99;69.64;100330.50;5055882;28;20469;-74
2023/07/15 06:39:54;;;;;;;2.22;2.13;;;22.60;99.90;;;22.93;68.91;100325.50;5055965;28;20052;-74
2023/07/15 06:42:22;;;;;;;2.45;2.35;;;22.60;99.90;;;22.95;69.16;100338.88;5055900;28;20433;-74
2023/07/15 06:44:50;;;;;;;2.10;2.00;;;22.50;99.90;;;22.90;68.72;100325.66;5056357;28;20045;-74
2023/07/15 06:47:19;;;;;;;2.25;2.15;;;22.50;99.90;;;22.94;69.20;100327.22;5055993;28;20410;-74
2023/07/15 06:49:48;;;;;;;2.75;2.65;;;22.50;99.90;;;22.94;69.71;100321.81;5056300;28;20059;-74
2023/07/15 06:52:17;;;;;;;2.37;2.27;;;22.50;99.90;;;22.93;69.69;100324.63;5055952;28;20459;-74
2023/07/15 06:54:45;;;;;;;2.53;2.42;;;22.50;99.90;;;22.84;69.74;100306.34;5055672;28;20079;-73
2023/07/15 06:57:13;;;;;;;2.40;2.30;;;22.50;99.90;;;23.01;70.39;100330.41;5051628;28;20445;-74
2023/07/15 06:59:42;;;;;;;2.72;2.63;;;22.60;99.90;;;23.12;70.78;100322.47;5055441;28;20045;-74
2023/07/15 07:02:10;;;;;;;2.50;2.40;;;22.60;99.90;;;23.17;70.74;100333.84;5055546;28;20520;-74
2023/07/15 07:04:38;;;;;;;2.60;2.50;;;22.70;99.90;;;23.21;71.03;100341.63;5055677;28;20092;-74
2023/07/15 07:07:08;;;;;;;2.40;2.30;;;22.80;99.90;;;23.22;70.56;100339.81;5055316;28;20060;-74
2023/07/15 07:09:36;;;;;;;2.73;2.63;;;22.80;99.90;;;23.30;71.25;100329.38;5055419;28;20445;-74
2023/07/15 07:12:06;;;;;;;2.47;2.38;;;22.90;99.90;;;23.33;71.43;100328.31;5055720;28;20044;-74
2023/07/15 07:14:34;;;;;;;3.17;3.08;;;23.00;99.90;;;23.34;69.96;100327.38;5055391;28;20067;-74
2023/07/15 07:17:03;;;;;;;2.35;2.25;;;22.90;99.90;;;23.26;69.32;100330.53;5055077;28;20115;-74
2023/07/15 07:19:31;;;;;;;2.30;2.20;;;22.90;99.90;;;23.22;68.96;100329.88;5055224;28;20107;-74
2023/07/15 07:21:59;;;;;;;2.15;2.05;;;22.80;99.90;;;23.28;69.18;100332.19;5051315;28;20052;-74
2023/07/15 07:24:29;;;;;;;2.33;2.22;;;22.90;99.90;;;23.25;68.83;100331.50;5055161;28;20049;-73
2023/07/15 07:26:58;;;;;;;2.20;2.10;;;22.90;99.90;;;23.28;68.89;100334.88;5054433;28;20111;-74
2023/07/15 07:29:27;;;;;;;2.20;2.10;;;22.90;99.90;;;23.27;67.20;100343.94;5055218;28;20064;-73
2023/07/15 07:31:55;;;;;;;2.45;2.35;;;22.90;99.90;;;23.23;65.95;100349.63;5055512;28;20049;-74
2023/07/15 07:34:23;;;;;;;2.28;2.17;;;22.80;99.90;;;23.30;66.11;100334.78;5054952;28;20049;-74
2023/07/15 07:36:52;;;;;;;2.47;2.38;;;22.90;99.90;;;23.29;64.54;100338.44;5053134;28;20065;-74
2023/07/15 07:39:20;;;;;;;2.40;2.30;;;22.90;99.90;;;23.30;64.10;100332.06;5055191;28;20099;-74
2023/07/15 07:41:50;;;;;;;2.50;2.40;;;22.90;99.90;;;23.33;62.77;100334.59;5053787;28;20056;-74
2023/07/15 07:44:18;;;;;;;2.07;1.97;;;22.90;99.90;;;22.94;62.75;100257.06;5054859;28;20103;-74
2023/07/15 07:46:46;;;;;;;2.22;2.13;;;23.00;99.90;;;23.43;62.81;100338.44;5051502;28;20318;-74
2023/07/15 07:49:15;;;;;;;2.50;2.40;;;23.10;99.90;;;23.51;63.00;100336.09;5054655;28;20052;-74
2023/07/15 07:51:43;;;;;;;2.28;2.17;;;23.10;99.90;;;23.60;63.80;100338.19;5054934;28;20131;-74
2023/07/15 07:54:12;;;;;;;2.00;1.90;;;23.20;99.90;;;23.66;63.40;100353.97;5054686;28;20094;-74
2023/07/15 07:56:40;;;;;;;2.35;2.25;;;23.30;99.90;;;23.69;62.51;100348.38;5051711;28;20037;-73
2023/07/15 07:59:10;;;;;;;2.15;2.05;;;23.30;99.90;;;23.65;62.22;100360.38;5054634;28;20124;-74
2023/07/15 08:01:39;;;;;;;2.28;2.17;;;23.30;99.90;;;23.69;63.66;100367.28;5054840;28;20049;-74
2023/07/15 08:04:07;;;;;;;2.20;2.10;;;23.30;99.90;;;23.63;62.29;100369.53;5054475;28;20483;-74
2023/07/15 08:06:36;;;;;;;2.35;2.25;;;23.30;99.90;;;23.60;62.85;100369.72;5054266;28;20041;-74
2023/07/15 08:09:04;;;;;;;2.03;1.92;;;23.20;99.90;;;23.58;61.59;100377.06;5054233;28;20494;-74
2023/07/15 08:11:33;;;;;;;2.28;2.17;;;23.20;99.90;;;23.58;62.44;100361.72;5050516;28;20504;-74
2023/07/15 08:14:01;;;;;;;2.30;2.20;;;23.20;99.90;;;23.67;61.97;100360.25;5054288;28;20055;-74
2023/07/15 08:16:36;;;;;;;2.42;2.33;;;23.30;99.90;;;23.62;60.62;100368.66;5067508;28;20107;-74
2023/07/15 08:19:07;;;;;;;2.10;2.00;;;23.30;99.90;;;23.64;61.75;100369.41;5054411;28;20110;-75
2023/07/15 08:21:35;;;;;;;;;;;23.30;99.90;;;23.56;60.62;100379.84;5055086;28;20041;-73
2023/07/15 08:24:04;;;;;;;2.05;1.95;;;23.20;99.90;;;23.12;61.66;100285.56;5054298;28;19960;-73
2023/07/15 08:26:32;;;;;;;2.30;2.20;;;23.20;99.90;;;23.56;62.03;100374.47;5053988;28;20053;-73
2023/07/15 08:29:03;;;;;;;2.50;2.40;;;23.20;99.90;;;23.57;61.39;100368.09;5054313;28;20540;-74
2023/07/15 08:31:32;;;;;;;2.30;2.20;;;23.20;99.90;;;23.66;60.05;100385.50;5053971;28;20049;-73
2023/07/15 08:34:02;;;;;;;2.78;2.67;;;23.20;99.90;;;23.74;58.61;100377.78;5054050;28;20110;-74
2023/07/15 08:36:31;;;;;;;2.30;2.20;;;23.30;99.90;;;23.84;58.25;100378.91;5054046;28;20059;-74
2023/07/15 08:38:59;;;;;;;2.80;2.70;;;23.50;99.90;;;23.88;60.19;100385.84;5053263;28;20044;-74
2023/07/15 08:41:28;;;;;;;2.30;2.20;;;23.50;99.90;;;24.01;59.47;100384.91;5052582;28;20057;-73
2023/07/15 08:43:56;;;;;;;2.38;2.28;;;23.60;99.90;;;24.07;59.76;100391.78;5053813;28;20044;-74
2023/07/15 08:46:27;;;;;;;2.42;2.33;;;23.70;99.90;;;24.07;59.18;100384.53;5053546;28;20045;-74
2023/07/15 08:48:58;;;;;;;2.25;2.15;;;23.70;99.90;;;24.02;59.56;100375.00;5050188;28;20546;-74
2023/07/15 08:51:32;;;;;;;1.90;1.80;;;23.70;99.90;;;24.25;60.16;100379.72;5053829;28;20041;-74
2023/07/15 08:54:03;;;;;;;2.17;2.08;;;23.80;99.90;;;24.16;59.43;100375.78;5053954;28;20045;-74
2023/07/15 08:56:34;;;;;;;2.13;2.03;;;23.80;99.90;;;24.14;60.53;100372.31;5053638;28;20517;-74
2023/07/15 08:59:06;;;;;;;2.28;2.17;;;23.80;99.90;;;24.15;60.07;100384.88;5053483;28;20044;-74
2023/07/15 09:01:35;;;;;;;2.50;2.40;;;23.80;99.90;;;24.15;60.97;100367.78;5048660;28;20143;-74
2023/07/15 09:04:04;;;;;;;2.13;2.03;;;23.80;99.90;;;23.96;58.46;100407.81;5053336;28;20045;-74
2023/07/15 09:06:35;;;;;;;2.30;2.20;;;23.70;99.90;;;23.97;59.96;100420.34;5050192;28;20131;-74
2023/07/15 09:09:04;;;;;;;2.65;1.98;;;23.60;99.90;;;23.78;59.38;100404.50;5053231;28;20044;-74
2023/07/15 09:11:40;;;;;;;2.58;2.47;;;23.50;99.90;;;23.88;58.87;100410.16;5052208;28;20041;-74
2023/07/15 09:14:14;;;;;;;2.30;2.20;;;23.50;99.90;;;23.94;58.65;100397.09;5053700;28;20045;-74
2023/07/15 09:16:43;;;;;;;2.28;2.17;;;23.50;99.90;;;24.00;58.57;100385.03;5050194;28;20039;-74
2023/07/15 09:19:12;;;;;;;2.20;2.10;;;23.70;99.90;;;24.29;59.02;100393.88;5051906;28;20544;-73
2023/07/15 09:21:52;;;;;;;2.75;2.65;;;23.90;99.90;;;24.18;58.69;100416.22;5052964;28;20428;-73
2023/07/15 09:24:22;;;;;;;2.35;2.17;;;23.80;99.90;;;24.30;59.56;100419.94;5047972;28;20498;-74
2023/07/15 09:26:54;;;;;;;2.70;2.60;;;23.90;99.90;;;24.37;58.42;100405.06;5049239;28;20448;-73
2023/07/15 09:29:23;;;;;;;2.47;2.38;;;24.00;99.90;;;24.24;58.58;100414.94;5053375;28;20055;-73
2023/07/15 09:31:51;;;;;;;2.30;2.20;;;23.90;99.90;;;24.26;59.77;100399.50;5053025;28;20052;-73
2023/07/15 09:34:23;;;;;;;2.13;2.03;;;23.90;99.90;;;24.50;59.22;100396.00;5052767;28;20041;-74
2023/07/15 09:36:55;;;;;;;2.38;2.28;;;24.10;99.90;;;24.76;59.69;100407.72;5052725;28;20444;-73
2023/07/15 09:39:24;;;;;;;2.20;2.10;;;24.30;99.90;;;24.91;58.89;100412.91;5052954;28;20474;-73
2023/07/15 09:42:06;;;;;;;1.88;1.83;;;24.50;99.90;;;25.03;59.00;100413.88;5048986;28;20037;-73
2023/07/15 09:44:37;;;;;;;2.08;1.98;;;24.60;99.90;;;24.95;58.37;100398.19;5052455;28;20145;-73
2023/07/15 09:47:06;;;;;;;2.25;2.15;;;24.70;99.90;;;25.17;59.73;100412.88;5052521;28;20056;-73
2023/07/15 09:49:36;;;;;;;2.47;2.38;;;24.70;99.90;;;25.17;58.13;100440.84;5052544;28;20052;-74
2023/07/15 09:52:07;;;;;;;2.45;1.77;;;24.80;99.90;;;24.91;59.06;100425.59;5048807;28;20055;-73
2023/07/15 09:54:36;;;;;;;2.20;2.10;;;24.60;99.90;;;24.36;58.24;100338.41;5052415;28;20397;-73
2023/07/15 09:57:09;;;;;;;1.98;1.88;;;24.50;99.90;;;24.67;58.07;100420.03;5052411;28;20398;-73
2023/07/15 09:59:45;;;;;;;2.20;2.10;;;24.30;99.90;;;24.65;58.54;100408.44;5052649;28;20052;-72
2023/07/15 10:02:31;;;;;;;2.20;2.10;;;24.30;99.90;;;25.00;59.07;100424.94;5049032;28;20115;-74
2023/07/15 10:05:04;;;;;;;2.58;2.47;;;24.60;99.90;;;25.01;59.07;100427.53;5051144;28;20442;-74
2023/07/15 10:07:34;;;;;;;1.90;1.80;;;24.70;99.90;;;25.16;58.36;100422.88;5052290;28;20565;-73
2023/07/15 10:10:05;;;;;;;3.40;3.20;;;24.80;99.90;;;25.14;58.92;100423.94;5052622;28;20086;-74
2023/07/15 10:12:34;;;;;;;;;;;24.80;99.90;;;24.97;59.76;100422.47;5052803;28;20178;-72
2023/07/15 10:15:04;;;;;;;1.73;1.73;;;24.70;99.90;;;25.02;58.77;100414.88;5052274;28;19943;-74
2023/07/15 10:17:37;;;;;;;2.30;2.20;;;24.70;99.90;;;24.82;58.92;100407.28;5052309;28;20044;-74
2023/07/15 10:20:10;;;;;;;2.03;1.92;;;24.60;99.90;;;24.86;58.32;100425.03;5052179;28;20049;-73
2023/07/15 10:22:42;;;;;;;2.22;2.13;;;24.50;99.90;;;24.79;59.05;100424.63;5048725;28;20459;-73